createdAt,value
2018-11-26T00:01:26.873Z,15.73
2018-11-26T00:03:54.535Z,16.27
2018-11-26T00:06:22.199Z,15.53
2018-11-26T00:08:49.810Z,16.50
2018-11-26T00:11:28.665Z,15.83
2018-11-26T00:13:56.429Z,15.33
2018-11-26T00:16:24.112Z,15.10
2018-11-26T00:18:51.746Z,14.90
2018-11-26T00:21:19.368Z,16.73
2018-11-26T00:23:46.973Z,15.73
2018-11-26T00:26:14.644Z,15.30
2018-11-26T00:28:42.289Z,15.90
2018-11-26T00:31:09.888Z,14.83
2018-11-26T00:33:37.490Z,15.63
2018-11-26T00:36:05.734Z,15.70
2018-11-26T00:38:33.294Z,16.63
2018-11-26T00:41:00.933Z,15.83
2018-11-26T00:43:28.517Z,15.97
2018-11-26T00:45:56.145Z,15.83
2018-11-26T00:48:23.685Z,16.07
2018-11-26T00:50:51.305Z,17.53
2018-11-26T00:53:18.853Z,16.33
2018-11-26T00:55:46.447Z,16.03
2018-11-26T00:58:14.066Z,16.03
2018-11-26T01:00:41.734Z,15.53
2018-11-26T01:03:09.369Z,16.63
2018-11-26T01:05:38.109Z,18.00
2018-11-26T01:08:05.999Z,16.70
2018-11-26T01:10:33.636Z,16.00
2018-11-26T01:13:01.209Z,15.40
2018-11-26T01:15:28.812Z,16.57
2018-11-26T01:17:56.448Z,15.43
2018-11-26T01:20:24.069Z,15.90
2018-11-26T01:22:51.667Z,16.67
2018-11-26T01:25:19.271Z,15.70
2018-11-26T01:27:46.878Z,15.63
2018-11-26T01:30:14.464Z,17.27
2018-11-26T01:32:42.130Z,15.70
2018-11-26T01:35:09.757Z,17.03
2018-11-26T01:37:37.356Z,15.70
2018-11-26T01:40:10.536Z,15.67
2018-11-26T01:42:38.134Z,17.97
2018-11-26T01:45:06.065Z,16.27
2018-11-26T01:47:33.645Z,16.10
2018-11-26T01:50:01.190Z,14.33
2018-11-26T01:52:28.769Z,16.30
2018-11-26T01:54:56.370Z,14.53
2018-11-26T01:57:23.955Z,15.97
2018-11-26T01:59:51.565Z,16.03
2018-11-26T02:02:19.166Z,15.17
2018-11-26T02:07:41.617Z,14.27
2018-11-26T02:10:12.085Z,14.67
2018-11-26T02:12:39.806Z,13.50
2018-11-26T02:15:09.824Z,15.33
2018-11-26T02:17:38.697Z,14.87
2018-11-26T02:20:06.628Z,15.03
2018-11-26T02:22:34.231Z,14.23
2018-11-26T02:25:01.932Z,15.83
2018-11-26T02:27:29.513Z,15.37
2018-11-26T02:29:57.131Z,15.47
2018-11-26T02:32:24.751Z,14.50
2018-11-26T02:34:52.331Z,14.87
2018-11-26T02:37:19.994Z,16.07
2018-11-26T02:39:47.532Z,14.80
2018-11-26T02:42:15.142Z,14.40
2018-11-26T02:44:42.793Z,14.70
2018-11-26T02:47:10.326Z,14.10
2018-11-26T02:49:37.924Z,14.77
2018-11-26T02:52:05.585Z,14.50
2018-11-26T02:54:33.209Z,15.43
2018-11-26T02:57:00.827Z,15.50
2018-11-26T02:59:28.425Z,15.07
2018-11-26T03:01:56.077Z,15.33
2018-11-26T03:04:23.717Z,15.57
2018-11-26T03:06:51.380Z,15.87
2018-11-26T03:09:19.014Z,14.00
2018-11-26T03:11:46.631Z,13.97
2018-11-26T03:14:20.931Z,14.70
2018-11-26T03:16:48.504Z,16.40
2018-11-26T03:19:16.163Z,16.03
2018-11-26T03:21:43.769Z,15.10
2018-11-26T03:24:11.349Z,14.83
2018-11-26T03:26:39.004Z,13.63
2018-11-26T03:29:06.609Z,14.03
2018-11-26T03:31:34.262Z,13.77
2018-11-26T03:34:01.835Z,13.23
2018-11-26T03:36:29.425Z,13.50
2018-11-26T03:38:57.076Z,12.43
2018-11-26T03:41:25.177Z,12.73
2018-11-26T03:43:52.845Z,11.93
2018-11-26T03:46:20.514Z,10.87
2018-11-26T03:48:48.099Z,11.80
2018-11-26T03:51:15.731Z,11.17
2018-11-26T03:53:43.310Z,11.30
2018-11-26T03:56:10.958Z,11.70
2018-11-26T03:58:38.543Z,10.47
2018-11-26T04:01:06.548Z,10.77
2018-11-26T04:03:34.141Z,10.40
2018-11-26T04:06:01.788Z,10.67
2018-11-26T04:08:29.452Z,10.73
2018-11-26T04:10:57.074Z,9.10
2018-11-26T04:13:24.727Z,11.03
2018-11-26T04:15:52.323Z,10.60
2018-11-26T04:18:20.019Z,9.77
2018-11-26T04:20:47.616Z,9.87
2018-11-26T04:23:15.244Z,9.40
2018-11-26T04:25:42.875Z,10.27
2018-11-26T04:28:10.426Z,9.90
2018-11-26T04:30:38.049Z,8.90
2018-11-26T04:33:05.652Z,9.77
2018-11-26T04:35:33.211Z,9.43
2018-11-26T04:38:00.874Z,8.80
2018-11-26T04:40:28.414Z,8.60
2018-11-26T04:42:55.969Z,8.50
2018-11-26T04:45:23.616Z,8.30
2018-11-26T04:47:51.176Z,7.87
2018-11-26T04:50:18.751Z,8.57
2018-11-26T04:52:46.397Z,8.40
2018-11-26T04:55:14.031Z,9.23
2018-11-26T04:57:42.742Z,9.50
2018-11-26T05:00:11.460Z,9.30
2018-11-26T05:02:39.069Z,9.20
2018-11-26T05:05:07.312Z,9.77
2018-11-26T05:07:34.941Z,10.27
2018-11-26T05:10:02.685Z,10.47
2018-11-26T05:12:30.248Z,10.33
2018-11-26T05:14:57.835Z,10.40
2018-11-26T05:17:25.450Z,9.37
2018-11-26T05:19:53.083Z,10.47
2018-11-26T05:22:20.650Z,11.70
2018-11-26T05:24:48.243Z,11.23
2018-11-26T05:27:15.836Z,11.63
2018-11-26T05:29:43.505Z,11.80
2018-11-26T05:32:11.094Z,11.10
2018-11-26T05:34:38.634Z,11.80
2018-11-26T05:37:06.390Z,11.43
2018-11-26T05:39:34.033Z,12.13
2018-11-26T05:42:01.578Z,11.23
2018-11-26T05:44:29.141Z,12.07
2018-11-26T05:46:56.729Z,11.40
2018-11-26T05:49:24.321Z,12.63
2018-11-26T05:51:51.909Z,12.27
2018-11-26T05:54:19.462Z,12.50
2018-11-26T05:56:47.136Z,13.03
2018-11-26T05:59:14.732Z,12.63
2018-11-26T06:01:42.345Z,13.23
2018-11-26T06:04:09.923Z,12.10
2018-11-26T06:06:37.509Z,13.50
2018-11-26T06:09:08.099Z,13.90
2018-11-26T06:11:35.895Z,14.63
2018-11-26T06:14:03.541Z,13.93
2018-11-26T06:16:31.096Z,15.13
2018-11-26T06:18:58.629Z,14.30
2018-11-26T06:21:26.257Z,13.63
2018-11-26T06:23:53.880Z,15.53
2018-11-26T06:26:21.488Z,13.10
2018-11-26T06:28:49.088Z,14.70
2018-11-26T06:31:16.642Z,15.00
2018-11-26T06:33:44.178Z,14.03
2018-11-26T06:36:11.795Z,14.47
2018-11-26T06:38:39.423Z,14.50
2018-11-26T06:41:07.042Z,14.67
2018-11-26T06:43:34.684Z,13.97
2018-11-26T06:46:02.334Z,14.90
2018-11-26T06:48:29.969Z,14.27
2018-11-26T06:50:57.563Z,15.13
2018-11-26T06:53:25.165Z,16.50
2018-11-26T06:55:52.783Z,15.47
2018-11-26T06:58:20.357Z,16.00
2018-11-26T07:00:47.980Z,16.50
2018-11-26T07:03:15.550Z,15.77
2018-11-26T07:05:43.163Z,14.90
2018-11-26T07:08:10.750Z,16.00
2018-11-26T07:10:38.397Z,17.53
2018-11-26T07:13:05.969Z,15.50
2018-11-26T07:15:33.583Z,14.20
2018-11-26T07:18:01.178Z,15.50
2018-11-26T07:20:28.714Z,16.27
2018-11-26T07:22:56.311Z,13.87
2018-11-26T07:25:23.932Z,14.40
2018-11-26T07:27:52.725Z,15.67
2018-11-26T07:30:23.377Z,13.13
2018-11-26T07:32:51.024Z,15.43
2018-11-26T07:35:18.647Z,15.40
2018-11-26T07:37:46.273Z,15.27
2018-11-26T07:40:17.962Z,16.37
2018-11-26T07:42:50.607Z,15.50
2018-11-26T07:45:18.161Z,14.10
2018-11-26T07:47:45.743Z,16.27
2018-11-26T07:50:15.318Z,16.53
2018-11-26T07:52:42.945Z,15.33
2018-11-26T07:55:12.824Z,15.20
2018-11-26T07:57:40.413Z,16.13
2018-11-26T08:00:12.198Z,16.47
2018-11-26T08:02:39.777Z,15.90
2018-11-26T08:05:09.607Z,16.80
2018-11-26T08:07:37.209Z,16.63
2018-11-26T08:10:08.586Z,15.90
2018-11-26T08:12:36.184Z,17.13
2018-11-26T08:15:06.046Z,16.23
2018-11-26T08:17:33.705Z,17.53
2018-11-26T08:20:01.363Z,16.77
2018-11-26T08:22:28.942Z,16.73
2018-11-26T08:24:56.573Z,17.27
2018-11-26T08:27:24.119Z,17.07
2018-11-26T08:29:52.139Z,17.90
2018-11-26T08:32:19.814Z,16.70
2018-11-26T08:34:47.427Z,17.80
2018-11-26T08:37:23.521Z,16.23
2018-11-26T08:39:52.177Z,17.73
2018-11-26T08:42:26.876Z,18.40
2018-11-26T08:44:55.705Z,17.10
2018-11-26T08:47:28.964Z,18.57
2018-11-26T08:49:56.557Z,18.13
2018-11-26T08:52:24.144Z,18.33
2018-11-26T08:54:51.795Z,16.73
2018-11-26T08:57:19.413Z,17.30
2018-11-26T08:59:47.045Z,16.70
2018-11-26T09:02:18.371Z,16.73
2018-11-26T09:04:46.446Z,17.63
2018-11-26T09:07:14.013Z,15.83
2018-11-26T09:09:41.661Z,16.33
2018-11-26T09:12:09.324Z,17.27
2018-11-26T09:14:36.910Z,17.60
2018-11-26T09:17:04.664Z,17.07
2018-11-26T09:19:32.221Z,16.00
2018-11-26T09:21:59.867Z,16.77
2018-11-26T09:24:27.439Z,15.73
2018-11-26T09:26:55.022Z,14.83
2018-11-26T09:29:22.581Z,14.10
2018-11-26T09:31:50.225Z,16.53
2018-11-26T09:34:17.776Z,16.40
2018-11-26T09:36:45.362Z,15.97
2018-11-26T09:39:13.046Z,15.77
2018-11-26T09:41:40.618Z,16.87
2018-11-26T09:44:08.297Z,17.13
2018-11-26T09:46:36.148Z,18.00
2018-11-26T09:49:03.778Z,15.57
2018-11-26T09:51:31.390Z,17.23
2018-11-26T09:53:59.008Z,17.37
2018-11-26T09:56:26.667Z,16.97
2018-11-26T09:58:54.305Z,16.17
2018-11-26T10:01:21.929Z,17.07
2018-11-26T10:03:49.559Z,15.47
2018-11-26T10:06:17.159Z,15.80
2018-11-26T10:08:44.731Z,16.07
2018-11-26T10:11:12.423Z,16.13
2018-11-26T10:13:40.006Z,15.87
2018-11-26T10:16:07.753Z,15.07
2018-11-26T10:18:35.337Z,14.57
2018-11-26T10:21:02.952Z,13.37
2018-11-26T10:23:30.629Z,14.07
2018-11-26T10:25:58.315Z,13.30
2018-11-26T10:28:25.857Z,12.17
2018-11-26T10:30:53.419Z,11.93
2018-11-26T10:33:20.980Z,12.77
2018-11-26T10:35:48.606Z,12.70
2018-11-26T10:38:16.245Z,13.90
2018-11-26T10:40:43.873Z,13.77
2018-11-26T10:43:11.873Z,12.30
2018-11-26T10:45:39.194Z,11.73
2018-11-26T10:48:07.220Z,12.83
2018-11-26T10:50:34.933Z,12.43
2018-11-26T10:53:02.525Z,13.17
2018-11-26T10:55:31.514Z,13.43
2018-11-26T10:57:59.150Z,13.70
2018-11-26T11:00:32.402Z,12.97
2018-11-26T11:02:59.948Z,12.23
2018-11-26T11:05:27.540Z,11.77
2018-11-26T11:07:55.241Z,13.23
2018-11-26T11:10:24.907Z,12.30
2018-11-26T11:12:52.599Z,12.23
2018-11-26T11:15:20.301Z,13.67
2018-11-26T11:17:47.925Z,12.60
2018-11-26T11:20:18.619Z,13.30
2018-11-26T11:22:46.249Z,13.10
2018-11-26T11:25:14.986Z,12.87
2018-11-26T11:27:43.482Z,13.87
2018-11-26T11:30:15.139Z,12.93
2018-11-26T11:32:42.838Z,16.83
2018-11-26T11:35:11.403Z,17.47
2018-11-26T11:37:39.197Z,17.03
2018-11-26T11:40:12.203Z,17.87
2018-11-26T11:42:39.769Z,18.10
2018-11-26T11:45:09.097Z,18.17
2018-11-26T11:47:36.682Z,19.03
2018-11-26T11:50:06.433Z,19.53
2018-11-26T11:52:34.119Z,20.63
2018-11-26T11:55:01.844Z,19.77
2018-11-26T11:57:29.415Z,18.87
2018-11-26T11:59:57.011Z,19.63
2018-11-26T12:02:24.569Z,20.33
2018-11-26T12:04:52.206Z,21.33
2018-11-26T12:07:19.832Z,21.30
2018-11-26T12:09:47.459Z,19.30
2018-11-26T12:12:15.068Z,20.93
2018-11-26T12:14:42.643Z,19.97
2018-11-26T12:17:10.207Z,21.50
2018-11-26T12:19:37.838Z,21.33
2018-11-26T12:22:05.514Z,20.47
2018-11-26T12:24:33.068Z,21.10
2018-11-26T12:27:00.635Z,20.33
2018-11-26T12:29:28.181Z,20.07
2018-11-26T12:31:55.835Z,20.17
2018-11-26T12:34:23.431Z,21.03
2018-11-26T12:36:50.997Z,21.00
2018-11-26T12:39:18.527Z,19.90
2018-11-26T12:41:46.161Z,20.87
2018-11-26T12:44:13.746Z,20.90
2018-11-26T12:46:41.446Z,21.27
2018-11-26T12:49:09.109Z,21.63
2018-11-26T12:51:36.747Z,21.33
2018-11-26T12:54:04.640Z,20.13
2018-11-26T12:56:33.172Z,20.23
2018-11-26T12:59:00.721Z,20.50
2018-11-26T13:01:28.401Z,21.10
2018-11-26T13:03:56.001Z,20.83
2018-11-26T13:06:23.546Z,19.50
2018-11-26T13:08:51.125Z,20.07
2018-11-26T13:11:18.714Z,18.40
2018-11-26T13:13:46.259Z,20.07
2018-11-26T13:16:13.870Z,17.70
2018-11-26T13:18:41.516Z,16.73
2018-11-26T13:21:09.038Z,17.97
2018-11-26T13:23:36.604Z,17.07
2018-11-26T13:26:04.344Z,16.97
2018-11-26T13:28:31.981Z,15.30
2018-11-26T13:30:59.599Z,16.27
2018-11-26T13:33:27.196Z,14.10
2018-11-26T13:35:54.803Z,16.23
2018-11-26T13:38:22.401Z,15.97
2018-11-26T13:40:49.937Z,15.90
2018-11-26T13:43:17.705Z,15.97
2018-11-26T13:45:47.383Z,15.77
2018-11-26T13:48:16.078Z,14.20
2018-11-26T13:50:46.601Z,15.63
2018-11-26T13:53:14.182Z,13.30
2018-11-26T13:55:41.822Z,14.00
2018-11-26T13:58:09.402Z,14.27
2018-11-26T14:00:36.975Z,14.20
2018-11-26T14:03:04.843Z,14.63
2018-11-26T14:05:32.471Z,13.13
2018-11-26T14:08:00.206Z,13.13
2018-11-26T14:10:28.236Z,14.60
2018-11-26T14:13:02.321Z,13.33
2018-11-26T14:15:29.965Z,14.47
2018-11-26T14:17:57.687Z,15.60
2018-11-26T14:20:25.299Z,15.60
2018-11-26T14:22:52.911Z,15.27
2018-11-26T14:25:20.590Z,14.93
2018-11-26T14:27:48.478Z,15.50
2018-11-26T14:30:21.502Z,14.80
2018-11-26T14:32:49.111Z,14.83
2018-11-26T14:35:16.742Z,17.70
2018-11-26T14:37:45.149Z,19.73
2018-11-26T14:40:21.235Z,17.17
2018-11-26T14:42:48.839Z,18.73
2018-11-26T14:45:16.502Z,13.87
2018-11-26T14:47:44.395Z,13.57
2018-11-26T14:50:12.959Z,13.20
2018-11-26T14:52:41.245Z,12.77
2018-11-26T14:55:12.502Z,12.73
2018-11-26T14:57:40.163Z,13.33
2018-11-26T15:00:12.791Z,12.57
2018-11-26T15:02:40.487Z,13.70
2018-11-26T15:05:08.443Z,14.43
2018-11-26T15:07:36.164Z,13.77
2018-11-26T15:10:05.435Z,13.27
2018-11-26T15:12:33.044Z,14.50
2018-11-26T15:15:00.675Z,14.83
2018-11-26T15:17:28.302Z,14.67
2018-11-26T15:19:56.052Z,14.93
2018-11-26T15:22:23.617Z,13.83
2018-11-26T15:24:51.185Z,12.30
2018-11-26T15:27:18.788Z,12.03
2018-11-26T15:29:46.311Z,11.87
2018-11-26T15:32:13.934Z,12.50
2018-11-26T15:34:41.536Z,12.20
2018-11-26T15:37:09.101Z,12.10
2018-11-26T15:39:36.678Z,11.87
2018-11-26T15:42:04.355Z,11.33
2018-11-26T15:44:31.919Z,12.00
2018-11-26T15:46:59.566Z,11.73
2018-11-26T15:49:27.273Z,9.70
2018-11-26T15:51:54.886Z,13.23
2018-11-26T15:54:22.516Z,13.50
2018-11-26T15:56:50.134Z,13.20
2018-11-26T15:59:17.751Z,12.07
2018-11-26T16:01:45.369Z,12.30
2018-11-26T16:04:12.906Z,11.00
2018-11-26T16:06:40.597Z,14.23
2018-11-26T16:09:09.344Z,13.07
2018-11-26T16:11:37.297Z,12.17
2018-11-26T16:14:05.906Z,11.90
2018-11-26T16:16:33.523Z,12.70
2018-11-26T16:19:01.155Z,11.90
2018-11-26T16:21:28.805Z,11.53
2018-11-26T16:23:56.337Z,12.33
2018-11-26T16:26:23.934Z,12.90
2018-11-26T16:28:51.470Z,12.47
2018-11-26T16:31:19.047Z,12.67
2018-11-26T16:33:46.662Z,12.47
2018-11-26T16:36:14.317Z,12.50
2018-11-26T16:38:41.966Z,12.23
2018-11-26T16:41:09.577Z,12.97
2018-11-26T16:43:37.214Z,13.53
2018-11-26T16:46:05.247Z,13.03
2018-11-26T16:48:38.815Z,14.70
2018-11-26T16:51:06.416Z,14.40
2018-11-26T16:53:33.998Z,14.30
2018-11-26T16:56:01.649Z,13.03
2018-11-26T16:58:29.244Z,14.00
2018-11-26T17:00:56.816Z,12.67
2018-11-26T17:03:24.413Z,13.53
2018-11-26T17:05:53.681Z,13.00
2018-11-26T17:08:21.280Z,12.37
2018-11-26T17:10:48.913Z,11.90
2018-11-26T17:13:16.561Z,11.20
2018-11-26T17:15:44.113Z,11.23
2018-11-26T17:18:11.753Z,11.80
2018-11-26T17:20:39.373Z,11.40
2018-11-26T17:23:07.301Z,10.33
2018-11-26T17:25:35.053Z,11.00
2018-11-26T17:28:02.624Z,12.33
2018-11-26T17:30:30.235Z,10.97
2018-11-26T17:33:00.516Z,12.03
2018-11-26T17:35:28.791Z,12.40
2018-11-26T17:37:56.499Z,12.87
2018-11-26T17:40:24.744Z,12.37
2018-11-26T17:42:53.091Z,11.90
2018-11-26T17:45:27.093Z,11.90
2018-11-26T17:47:57.521Z,11.57
2018-11-26T17:50:30.631Z,12.43
2018-11-26T17:52:58.445Z,12.47
2018-11-26T17:55:26.269Z,12.43
2018-11-26T17:57:54.850Z,12.93
2018-11-26T18:00:31.335Z,13.63
2018-11-26T18:02:58.884Z,13.77
2018-11-26T18:05:28.917Z,13.30
2018-11-26T18:08:28.570Z,12.93
2018-11-26T18:10:56.163Z,12.90
2018-11-26T18:13:23.787Z,13.37
2018-11-26T18:15:51.444Z,12.37
2018-11-26T18:18:19.308Z,13.13
2018-11-26T18:20:47.509Z,13.97
2018-11-26T18:23:15.222Z,13.80
2018-11-26T18:25:43.304Z,14.43
2018-11-26T18:28:14.489Z,14.77
2018-11-26T18:30:44.499Z,14.03
2018-11-26T18:33:12.148Z,14.20
2018-11-26T18:35:40.340Z,13.73
2018-11-26T18:38:08.046Z,13.03
2018-11-26T18:40:36.870Z,12.67
2018-11-26T18:43:05.545Z,13.17
2018-11-26T18:45:33.243Z,13.40
2018-11-26T18:48:00.819Z,11.63
2018-11-26T18:50:28.511Z,12.93
2018-11-26T18:52:56.042Z,12.47
2018-11-26T18:55:23.663Z,13.30
2018-11-26T18:57:51.280Z,14.00
2018-11-26T19:00:26.108Z,12.97
2018-11-26T19:02:54.434Z,13.77
2018-11-26T19:05:22.016Z,14.03
2018-11-26T19:07:50.915Z,13.47
2018-11-26T19:10:20.315Z,13.37
2018-11-26T19:12:59.655Z,14.07
2018-11-26T19:15:30.988Z,16.80
2018-11-26T19:18:02.165Z,15.87
2018-11-26T19:20:29.730Z,17.13
2018-11-26T19:22:57.427Z,15.53
2018-11-26T19:25:25.277Z,14.73
2018-11-26T19:27:53.027Z,14.77
2018-11-26T19:30:23.071Z,14.03
2018-11-26T19:32:48.632Z,15.27
2018-11-26T19:35:16.309Z,13.23
2018-11-26T19:37:43.970Z,14.10
2018-11-26T19:40:13.074Z,14.43
2018-11-26T19:42:41.669Z,15.13
2018-11-26T19:45:17.865Z,15.53
2018-11-26T19:47:45.736Z,14.97
2018-11-26T19:50:14.943Z,15.33
2018-11-26T19:52:43.106Z,15.93
2018-11-26T19:55:15.316Z,15.20
2018-11-26T19:57:43.079Z,15.53
2018-11-26T20:00:14.120Z,15.57
2018-11-26T20:02:42.283Z,15.20
2018-11-26T20:05:20.424Z,15.47
2018-11-26T20:07:48.243Z,16.10
2018-11-26T20:10:16.129Z,16.40
2018-11-26T20:12:43.831Z,15.33
2018-11-26T20:15:13.416Z,14.97
2018-11-26T20:17:41.536Z,16.17
2018-11-26T20:20:09.684Z,15.10
2018-11-26T20:22:37.494Z,15.33
2018-11-26T20:25:08.321Z,16.50
2018-11-26T20:27:36.102Z,16.10
2018-11-26T20:30:04.479Z,15.70
2018-11-26T20:32:32.252Z,15.77
2018-11-26T20:35:00.045Z,15.63
2018-11-26T20:37:27.771Z,16.80
2018-11-26T20:39:55.695Z,16.37
2018-11-26T20:42:23.439Z,14.47
2018-11-26T20:44:51.271Z,14.03
2018-11-26T20:47:19.101Z,14.87
2018-11-26T20:49:46.914Z,19.83
2018-11-26T20:52:14.630Z,18.33
2018-11-26T20:54:42.335Z,21.27
2018-11-26T20:57:10.098Z,18.33
2018-11-26T20:59:38.119Z,15.13
2018-11-26T21:02:05.962Z,13.87
2018-11-26T21:04:33.824Z,13.07
2018-11-26T21:07:01.560Z,12.83
2018-11-26T21:09:29.387Z,13.80
2018-11-26T21:11:57.143Z,13.30
2018-11-26T21:14:24.975Z,13.47
2018-11-26T21:16:52.744Z,13.73
2018-11-26T21:19:20.540Z,13.53
2018-11-26T21:21:48.425Z,14.73
2018-11-26T21:24:16.136Z,13.80
2018-11-26T21:26:43.981Z,14.40
2018-11-26T21:29:11.725Z,15.60
2018-11-26T21:31:39.430Z,14.00
2018-11-26T21:34:07.081Z,14.50
2018-11-26T21:36:34.803Z,15.17
2018-11-26T21:39:02.682Z,15.07
2018-11-26T21:41:30.307Z,15.50
2018-11-26T21:43:57.967Z,14.97
2018-11-26T21:46:25.651Z,14.20
2018-11-26T21:48:53.338Z,15.43
2018-11-26T21:51:21.063Z,15.47
2018-11-26T21:53:48.676Z,14.73
2018-11-26T21:56:16.314Z,14.43
2018-11-26T21:58:44.016Z,15.20
2018-11-26T22:01:11.688Z,15.13
2018-11-26T22:03:39.321Z,15.27
2018-11-26T22:06:07.066Z,15.03
2018-11-26T22:08:34.854Z,17.30
2018-11-26T22:11:02.544Z,16.27
2018-11-26T22:13:30.583Z,16.40
2018-11-26T22:15:58.317Z,16.40
2018-11-26T22:18:25.946Z,15.93
2018-11-26T22:20:53.531Z,16.97
2018-11-26T22:23:21.162Z,15.57
2018-11-26T22:25:48.846Z,16.03
2018-11-26T22:28:16.505Z,16.93
2018-11-26T22:30:44.145Z,14.63
2018-11-26T22:33:11.801Z,16.20
2018-11-26T22:35:39.488Z,17.07
2018-11-26T22:38:07.139Z,15.30
2018-11-26T22:40:34.775Z,16.60
2018-11-26T22:43:02.348Z,14.67
2018-11-26T22:45:31.215Z,16.13
2018-11-26T22:48:09.474Z,15.50
2018-11-26T22:50:38.545Z,13.23
2018-11-26T22:53:07.160Z,17.70
2018-11-26T22:55:35.038Z,15.53
2018-11-26T22:58:02.761Z,21.43
2018-11-26T23:00:39.723Z,21.43
2018-11-26T23:03:07.374Z,18.93
2018-11-26T23:05:35.015Z,19.37
2018-11-26T23:08:02.634Z,16.80
2018-11-26T23:10:30.233Z,16.03
2018-11-26T23:12:57.910Z,18.27
2018-11-26T23:15:25.686Z,16.53
2018-11-26T23:17:53.569Z,14.57
2018-11-26T23:20:21.141Z,12.43
2018-11-26T23:22:48.770Z,13.50
2018-11-26T23:25:17.553Z,12.53
2018-11-26T23:27:45.271Z,12.93
2018-11-26T23:30:17.014Z,12.67
2018-11-26T23:32:45.671Z,13.47
2018-11-26T23:35:13.375Z,11.97
2018-11-26T23:37:41.044Z,13.40
2018-11-26T23:40:09.772Z,14.10
2018-11-26T23:42:37.488Z,12.57
2018-11-26T23:45:09.957Z,12.77
2018-11-26T23:47:37.537Z,12.33
2018-11-26T23:50:06.218Z,12.57
2018-11-26T23:52:33.836Z,13.80
2018-11-26T23:55:01.412Z,11.77
2018-11-26T23:57:29.083Z,13.20
2018-11-26T23:59:56.657Z,12.07
